createdAt,value
2022-10-16T00:01:23.202Z,30.58
2022-10-16T00:03:51.025Z,27.40
2022-10-16T00:06:20.818Z,23.02
2022-10-16T00:08:50.552Z,29.80
2022-10-16T00:11:20.393Z,24.02
2022-10-16T00:13:51.615Z,31.02
2022-10-16T00:16:19.899Z,23.83
2022-10-16T00:18:47.423Z,22.83
2022-10-16T00:21:16.916Z,24.08
2022-10-16T00:23:44.600Z,25.85
2022-10-16T00:26:16.028Z,23.35
2022-10-16T00:28:43.823Z,21.90
2022-10-16T00:31:13.823Z,20.65
2022-10-16T00:33:42.189Z,34.40
2022-10-16T00:36:12.994Z,9.68
2022-10-16T00:38:40.892Z,11.63
2022-10-16T00:41:09.327Z,23.15
2022-10-16T00:43:42.634Z,22.65
2022-10-16T00:46:17.463Z,18.70
2022-10-16T00:48:50.277Z,15.80
2022-10-16T00:51:21.262Z,13.48
2022-10-16T00:53:49.315Z,20.48
2022-10-16T00:56:17.012Z,31.65
2022-10-16T00:58:46.135Z,33.97
2022-10-16T01:01:13.977Z,20.45
2022-10-16T01:03:41.814Z,22.00
2022-10-16T01:06:20.775Z,24.17
2022-10-16T01:09:00.272Z,22.23
2022-10-16T01:11:35.730Z,24.35
2022-10-16T01:14:13.292Z,28.33
2022-10-16T01:16:45.712Z,30.70
2022-10-16T01:19:19.125Z,22.65
2022-10-16T01:21:49.997Z,29.48
2022-10-16T01:24:27.196Z,25.60
2022-10-16T01:27:09.432Z,27.15
2022-10-16T01:29:42.959Z,29.02
2022-10-16T01:32:16.833Z,22.83
2022-10-16T01:34:51.422Z,29.92
2022-10-16T01:37:29.449Z,23.52
2022-10-16T01:40:01.066Z,34.00
2022-10-16T01:42:36.300Z,25.75
2022-10-16T01:45:07.425Z,28.80
2022-10-16T01:47:37.365Z,20.00
2022-10-16T01:50:06.686Z,16.58
2022-10-16T01:52:37.039Z,14.05
2022-10-16T01:55:08.388Z,24.98
2022-10-16T01:57:40.163Z,14.55
2022-10-16T02:00:12.384Z,16.00
2022-10-16T02:02:42.991Z,21.67
2022-10-16T02:05:18.846Z,20.10
2022-10-16T02:07:46.435Z,25.60
2022-10-16T02:10:14.087Z,19.10
2022-10-16T02:12:47.971Z,21.30
2022-10-16T02:15:15.563Z,21.73
2022-10-16T02:17:43.102Z,17.63
2022-10-16T02:20:11.752Z,21.58
2022-10-16T02:22:44.863Z,25.48
2022-10-16T02:25:17.223Z,20.98
2022-10-16T02:27:53.408Z,17.48
2022-10-16T02:30:26.724Z,19.70
2022-10-16T02:32:55.699Z,18.60
2022-10-16T02:35:25.403Z,23.15
2022-10-16T02:37:54.215Z,23.20
2022-10-16T02:40:24.487Z,24.90
2022-10-16T02:42:55.968Z,17.88
2022-10-16T02:45:24.157Z,22.58
2022-10-16T02:47:51.663Z,19.05
2022-10-16T02:50:19.325Z,22.80
2022-10-16T02:52:46.828Z,19.10
2022-10-16T02:55:14.412Z,18.52
2022-10-16T02:57:42.156Z,16.67
2022-10-16T03:00:14.593Z,16.95
2022-10-16T03:02:42.948Z,14.52
2022-10-16T03:05:11.634Z,14.27
2022-10-16T03:07:39.691Z,17.33
2022-10-16T03:10:08.224Z,17.23
2022-10-16T03:12:35.744Z,16.58
2022-10-16T03:15:03.335Z,17.27
2022-10-16T03:17:33.772Z,22.42
2022-10-16T03:20:01.313Z,18.10
2022-10-16T03:22:28.824Z,18.60
2022-10-16T03:24:56.345Z,15.88
2022-10-16T03:27:24.109Z,18.92
2022-10-16T03:29:51.883Z,19.25
2022-10-16T03:32:19.379Z,16.52
2022-10-16T03:34:48.255Z,16.35
2022-10-16T03:37:15.791Z,20.50
2022-10-16T03:39:43.315Z,19.52
2022-10-16T03:42:10.827Z,18.70
2022-10-16T03:44:38.347Z,12.90
2022-10-16T03:47:05.855Z,24.05
2022-10-16T03:49:33.375Z,11.98
2022-10-16T03:52:02.440Z,18.27
2022-10-16T03:54:29.952Z,23.08
2022-10-16T03:56:57.450Z,20.77
2022-10-16T03:59:25.072Z,37.35
2022-10-16T04:01:52.572Z,24.83
2022-10-16T04:04:20.316Z,23.33
2022-10-16T04:06:47.812Z,27.52
2022-10-16T04:09:16.759Z,35.13
2022-10-16T04:11:44.597Z,32.75
2022-10-16T04:14:12.393Z,31.60
2022-10-16T04:16:39.892Z,47.00
2022-10-16T04:19:07.375Z,39.47
2022-10-16T04:21:34.889Z,44.80
2022-10-16T04:24:02.411Z,38.90
2022-10-16T04:26:31.396Z,43.55
2022-10-16T04:28:59.152Z,40.22
2022-10-16T04:31:26.922Z,29.48
2022-10-16T04:33:54.428Z,64.10
2022-10-16T04:36:24.255Z,64.07
2022-10-16T04:38:54.324Z,99.60
2022-10-16T04:41:21.845Z,41.63
2022-10-16T04:43:50.688Z,37.03
2022-10-16T04:46:18.208Z,36.08
2022-10-16T04:48:45.916Z,63.75
2022-10-16T04:51:13.429Z,45.08
2022-10-16T04:53:40.979Z,47.90
2022-10-16T04:56:08.619Z,33.65
2022-10-16T04:58:36.125Z,38.28
2022-10-16T05:01:05.192Z,43.70
2022-10-16T05:03:32.711Z,34.13
2022-10-16T05:06:00.253Z,53.13
2022-10-16T05:08:27.759Z,42.17
2022-10-16T05:10:55.307Z,43.50
2022-10-16T05:13:24.116Z,51.63
2022-10-16T05:15:52.068Z,56.67
2022-10-16T05:18:20.940Z,61.47
2022-10-16T05:20:48.459Z,47.97
2022-10-16T05:23:16.015Z,52.92
2022-10-16T05:25:43.530Z,48.20
2022-10-16T05:28:11.044Z,69.13
2022-10-16T05:30:39.405Z,33.70
2022-10-16T05:33:06.908Z,54.85
2022-10-16T05:35:35.959Z,39.20
2022-10-16T05:38:03.460Z,60.83
2022-10-16T05:40:30.972Z,46.35
2022-10-16T05:42:58.491Z,53.42
2022-10-16T05:45:26.014Z,72.28
2022-10-16T05:47:53.539Z,72.20
2022-10-16T05:50:21.106Z,42.00
2022-10-16T05:52:49.954Z,52.90
2022-10-16T05:55:17.552Z,66.38
2022-10-16T05:57:45.158Z,78.43
2022-10-16T06:00:13.183Z,66.35
2022-10-16T06:02:40.794Z,51.03
2022-10-16T06:05:08.640Z,39.83
2022-10-16T06:07:36.785Z,59.67
2022-10-16T06:10:07.005Z,53.80
2022-10-16T06:12:34.506Z,52.85
2022-10-16T06:15:02.042Z,38.65
2022-10-16T06:17:29.610Z,63.25
2022-10-16T06:19:57.269Z,51.15
2022-10-16T06:22:24.807Z,63.53
2022-10-16T06:24:52.330Z,44.05
2022-10-16T06:27:21.201Z,65.00
2022-10-16T06:29:48.678Z,78.93
2022-10-16T06:32:16.183Z,46.88
2022-10-16T06:34:44.271Z,54.60
2022-10-16T06:37:11.841Z,55.22
2022-10-16T06:39:39.885Z,60.95
2022-10-16T06:42:07.396Z,50.92
2022-10-16T06:44:36.252Z,38.03
2022-10-16T06:47:04.703Z,66.30
2022-10-16T06:49:32.246Z,57.42
2022-10-16T06:51:59.808Z,35.20
2022-10-16T06:54:27.725Z,54.13
2022-10-16T06:56:55.468Z,53.88
2022-10-16T06:59:23.027Z,48.92
2022-10-16T07:01:51.884Z,60.33
2022-10-16T07:04:19.643Z,56.47
2022-10-16T07:06:47.157Z,61.17
2022-10-16T07:09:14.696Z,17.70
2022-10-16T07:11:42.780Z,19.33
2022-10-16T07:14:17.417Z,14.82
2022-10-16T07:16:44.987Z,26.42
2022-10-16T07:19:15.755Z,18.48
2022-10-16T07:21:43.571Z,27.60
2022-10-16T07:24:14.777Z,33.10
2022-10-16T07:26:43.239Z,25.92
2022-10-16T07:29:15.744Z,20.00
2022-10-16T07:31:43.986Z,42.03
2022-10-16T07:34:12.147Z,21.55
2022-10-16T07:39:13.511Z,40.65
2022-10-16T07:41:41.036Z,21.90
2022-10-16T07:44:08.919Z,24.33
2022-10-16T07:46:37.422Z,25.05
2022-10-16T07:49:04.967Z,19.63
2022-10-16T07:51:32.621Z,23.40
2022-10-16T07:54:01.504Z,22.85
2022-10-16T07:56:29.033Z,24.50
2022-10-16T07:58:57.395Z,22.55
2022-10-16T08:01:24.984Z,15.13
2022-10-16T08:03:53.673Z,20.60
2022-10-16T08:06:26.914Z,14.85
2022-10-16T08:08:56.309Z,20.10
2022-10-16T08:11:25.605Z,17.40
2022-10-16T08:13:53.225Z,13.70
2022-10-16T08:16:20.769Z,16.85
2022-10-16T08:18:48.347Z,14.52
2022-10-16T08:21:20.406Z,17.05
2022-10-16T08:23:52.991Z,9.77
2022-10-16T08:26:28.234Z,34.30
2022-10-16T08:28:56.412Z,24.02
2022-10-16T08:31:24.159Z,44.67
2022-10-16T08:33:53.062Z,41.60
2022-10-16T08:36:20.614Z,33.63
2022-10-16T08:38:50.113Z,44.15
2022-10-16T08:41:32.838Z,35.80
2022-10-16T08:44:26.836Z,14.05
2022-10-16T08:47:04.852Z,34.22
2022-10-16T08:49:33.098Z,14.05
2022-10-16T08:52:01.121Z,45.25
2022-10-16T08:54:34.871Z,44.80
2022-10-16T08:57:11.463Z,51.65
2022-10-16T08:59:39.070Z,60.85
2022-10-16T09:02:25.676Z,45.47
2022-10-16T09:05:02.179Z,40.65
2022-10-16T09:07:35.812Z,41.80
2022-10-16T09:10:20.540Z,35.47
2022-10-16T09:12:56.080Z,46.00
2022-10-16T09:15:34.088Z,41.63
2022-10-16T09:18:07.168Z,48.85
2022-10-16T09:20:44.355Z,38.65
2022-10-16T09:23:17.911Z,48.90
2022-10-16T09:25:48.578Z,37.78
2022-10-16T09:28:17.983Z,30.08
2022-10-16T09:30:46.561Z,41.45
2022-10-16T09:33:15.504Z,47.80
2022-10-16T09:35:45.998Z,29.77
2022-10-16T09:38:26.285Z,25.80
2022-10-16T09:40:58.858Z,35.42
2022-10-16T09:43:40.991Z,46.42
2022-10-16T09:46:10.838Z,20.38
2022-10-16T09:48:41.367Z,47.75
2022-10-16T09:51:20.596Z,40.63
2022-10-16T09:53:49.843Z,32.10
2022-10-16T09:56:24.573Z,47.45
2022-10-16T09:58:55.063Z,36.35
2022-10-16T10:01:24.540Z,65.53
2022-10-16T10:03:53.701Z,45.08
2022-10-16T10:06:25.807Z,37.30
2022-10-16T10:09:03.764Z,32.58
2022-10-16T10:11:50.765Z,35.65
2022-10-16T10:14:37.026Z,30.05
2022-10-16T10:17:17.302Z,46.25
2022-10-16T10:19:49.597Z,21.77
2022-10-16T10:22:27.010Z,16.55
2022-10-16T10:25:19.468Z,11.73
2022-10-16T10:28:02.429Z,46.83
2022-10-16T10:30:39.200Z,46.47
2022-10-16T10:33:20.742Z,10.70
2022-10-16T10:35:57.509Z,13.05
2022-10-16T10:38:36.743Z,14.48
2022-10-16T10:41:18.087Z,10.63
2022-10-16T10:43:57.735Z,14.13
2022-10-16T10:46:34.173Z,16.10
2022-10-16T10:49:22.623Z,14.55
2022-10-16T10:52:01.380Z,23.40
2022-10-16T10:54:37.840Z,13.35
2022-10-16T10:57:11.684Z,10.75
2022-10-16T11:00:18.231Z,10.52
2022-10-16T11:02:54.133Z,13.23
2022-10-16T11:05:33.045Z,30.17
2022-10-16T11:08:02.788Z,18.00
2022-10-16T11:10:36.517Z,36.60
2022-10-16T11:13:16.476Z,45.80
2022-10-16T11:15:46.284Z,14.10
2022-10-16T11:18:21.955Z,22.45
2022-10-16T11:20:55.419Z,20.45
2022-10-16T11:23:28.135Z,33.55
2022-10-16T11:26:01.332Z,27.27
2022-10-16T11:28:34.609Z,55.88
2022-10-16T11:31:06.959Z,51.38
2022-10-16T11:33:41.862Z,24.42
2022-10-16T11:36:16.098Z,39.53
2022-10-16T11:38:49.174Z,53.78
2022-10-16T11:41:25.788Z,24.13
2022-10-16T11:44:07.539Z,44.20
2022-10-16T11:46:52.568Z,42.00
2022-10-16T11:49:32.357Z,41.70
2022-10-16T11:52:10.730Z,30.40
2022-10-16T11:54:47.392Z,29.30
2022-10-16T11:57:19.419Z,33.35
2022-10-16T11:59:53.491Z,34.03
2022-10-16T12:02:40.525Z,31.17
2022-10-16T12:05:24.054Z,16.38
2022-10-16T12:08:02.213Z,44.22
2022-10-16T12:10:32.969Z,17.05
2022-10-16T12:13:00.695Z,11.00
2022-10-16T12:15:47.447Z,14.63
2022-10-16T12:18:24.252Z,11.00
2022-10-16T12:21:00.297Z,22.75
2022-10-16T12:23:28.188Z,8.70
2022-10-16T12:25:56.993Z,16.42
2022-10-16T12:28:29.716Z,9.68
2022-10-16T12:30:59.645Z,10.93
2022-10-16T12:33:29.032Z,11.23
2022-10-16T12:35:59.129Z,10.38
2022-10-16T12:38:29.857Z,16.45
2022-10-16T12:41:01.832Z,17.40
2022-10-16T12:43:39.161Z,15.02
2022-10-16T12:46:24.239Z,17.67
2022-10-16T12:49:08.335Z,35.30
2022-10-16T12:51:39.107Z,27.13
2022-10-16T12:54:14.396Z,14.02
2022-10-16T12:56:57.472Z,15.95
2022-10-16T12:59:34.674Z,22.67
2022-10-16T13:02:28.288Z,13.30
2022-10-16T13:05:15.646Z,29.77
2022-10-16T13:07:58.282Z,8.07
2022-10-16T13:10:30.717Z,20.65
2022-10-16T13:13:15.812Z,12.52
2022-10-16T13:15:54.099Z,11.43
2022-10-16T13:18:27.490Z,22.70
2022-10-16T13:21:07.983Z,15.32
2022-10-16T13:26:25.052Z,8.05
2022-10-16T13:28:52.678Z,11.45
2022-10-16T13:31:23.731Z,15.38
2022-10-16T13:33:55.650Z,14.43
2022-10-16T13:36:24.922Z,14.07
2022-10-16T13:39:11.670Z,17.38
2022-10-16T13:41:39.329Z,17.80
2022-10-16T13:44:13.101Z,12.00
2022-10-16T13:46:40.624Z,11.25
2022-10-16T13:49:14.972Z,12.43
2022-10-16T13:51:42.626Z,17.40
2022-10-16T13:54:13.327Z,20.02
2022-10-16T13:56:42.165Z,10.98
2022-10-16T13:59:26.916Z,12.32
2022-10-16T14:01:56.691Z,19.08
2022-10-16T14:04:25.437Z,15.65
2022-10-16T14:06:53.535Z,20.63
2022-10-16T14:09:27.506Z,20.75
2022-10-16T14:11:58.727Z,17.48
2022-10-16T14:14:28.981Z,17.58
2022-10-16T14:16:56.835Z,18.17
2022-10-16T14:19:27.215Z,17.63
2022-10-16T14:21:55.320Z,13.48
2022-10-16T14:24:32.987Z,12.93
2022-10-16T14:27:01.114Z,11.73
2022-10-16T14:29:32.237Z,7.55
2022-10-16T14:32:01.893Z,11.20
2022-10-16T14:34:33.705Z,10.23
2022-10-16T14:37:10.831Z,8.98
2022-10-16T14:39:39.739Z,10.02
2022-10-16T14:42:16.907Z,17.83
2022-10-16T14:44:44.552Z,11.48
2022-10-16T14:47:17.764Z,15.18
2022-10-16T14:49:45.296Z,16.13
2022-10-16T14:52:13.940Z,16.10
2022-10-16T14:54:43.328Z,11.82
2022-10-16T14:57:19.232Z,11.32
2022-10-16T14:59:48.112Z,14.52
2022-10-16T15:02:24.682Z,11.82
2022-10-16T15:04:52.282Z,15.02
2022-10-16T15:07:19.815Z,13.80
2022-10-16T15:09:49.457Z,12.68
2022-10-16T15:12:17.637Z,13.65
2022-10-16T15:14:45.188Z,11.90
2022-10-16T15:17:14.621Z,13.07
2022-10-16T15:19:44.059Z,30.15
2022-10-16T15:22:13.111Z,14.27
2022-10-16T15:24:40.672Z,13.07
2022-10-16T15:27:09.519Z,16.17
2022-10-16T15:29:37.047Z,14.38
2022-10-16T15:32:04.841Z,14.77
2022-10-16T15:34:32.341Z,14.07
2022-10-16T15:37:00.743Z,15.68
2022-10-16T15:39:28.246Z,18.08
2022-10-16T15:41:55.794Z,15.15
2022-10-16T15:44:27.031Z,10.88
2022-10-16T15:46:56.583Z,5.90
2022-10-16T15:49:24.395Z,8.93
2022-10-16T15:51:53.735Z,10.63
2022-10-16T15:54:22.728Z,8.18
2022-10-16T15:56:50.277Z,17.67
2022-10-16T15:59:17.792Z,16.00
2022-10-16T16:01:46.699Z,13.50
2022-10-16T16:04:31.880Z,15.30
2022-10-16T16:07:02.107Z,17.73
2022-10-16T16:09:30.924Z,19.73
2022-10-16T16:12:01.314Z,19.17
2022-10-16T16:14:29.695Z,19.08
2022-10-16T16:16:59.187Z,52.75
2022-10-16T16:19:26.810Z,56.20
2022-10-16T16:21:54.380Z,61.35
2022-10-16T16:24:21.903Z,62.13
2022-10-16T16:26:49.481Z,55.05
2022-10-16T16:29:18.103Z,43.83
2022-10-16T16:31:47.941Z,39.33
2022-10-16T16:34:17.135Z,44.95
2022-10-16T16:36:44.648Z,43.78
2022-10-16T16:39:12.391Z,45.47
2022-10-16T16:41:39.928Z,43.10
2022-10-16T16:44:10.278Z,45.92
2022-10-16T16:46:38.111Z,47.25
2022-10-16T16:49:05.700Z,40.75
2022-10-16T16:51:38.313Z,44.53
2022-10-16T16:54:09.171Z,52.80
2022-10-16T16:56:36.798Z,49.28
2022-10-16T16:59:04.903Z,56.88
2022-10-16T17:01:32.827Z,51.40
2022-10-16T17:04:03.057Z,45.22
2022-10-16T17:06:31.427Z,38.38
2022-10-16T17:09:03.411Z,32.33
2022-10-16T17:11:31.992Z,30.08
2022-10-16T17:14:00.951Z,30.30
2022-10-16T17:16:31.838Z,26.40
2022-10-16T17:19:02.153Z,27.65
2022-10-16T17:21:30.619Z,25.88
2022-10-16T17:23:58.579Z,25.55
2022-10-16T17:26:27.712Z,30.45
2022-10-16T17:28:57.024Z,35.63
2022-10-16T17:31:26.498Z,36.72
2022-10-16T17:33:54.119Z,38.65
2022-10-16T17:36:23.047Z,78.55
2022-10-16T17:38:50.739Z,80.28
2022-10-16T17:41:20.700Z,71.80
2022-10-16T17:43:49.847Z,74.80
2022-10-16T17:46:19.264Z,87.93
2022-10-16T17:48:49.424Z,74.35
2022-10-16T17:51:19.904Z,83.45
2022-10-16T17:53:49.589Z,89.70
2022-10-16T17:56:17.248Z,88.45
2022-10-16T17:58:47.704Z,82.78
2022-10-16T18:01:21.918Z,88.32
2022-10-16T18:03:51.152Z,73.10
2022-10-16T18:06:22.920Z,66.07
2022-10-16T18:08:50.998Z,84.50
2022-10-16T18:11:19.012Z,72.47
2022-10-16T18:13:46.699Z,83.88
2022-10-16T18:16:15.549Z,91.97
2022-10-16T18:18:45.713Z,107.38
2022-10-16T18:21:15.267Z,85.28
2022-10-16T18:23:47.685Z,107.43
2022-10-16T18:26:20.334Z,62.38
2022-10-16T18:28:48.383Z,75.20
2022-10-16T18:31:18.408Z,94.70
2022-10-16T18:33:50.445Z,93.63
2022-10-16T18:36:20.769Z,99.53
2022-10-16T18:38:48.517Z,81.25
2022-10-16T18:41:16.322Z,68.72
2022-10-16T18:43:43.941Z,58.67
2022-10-16T18:46:13.378Z,83.13
2022-10-16T18:48:41.932Z,86.03
2022-10-16T18:51:14.498Z,74.22
2022-10-16T18:53:43.585Z,60.80
2022-10-16T18:56:12.125Z,31.42
2022-10-16T18:58:41.461Z,32.42
2022-10-16T19:01:11.338Z,32.40
2022-10-16T19:03:44.820Z,36.55
2022-10-16T19:06:16.302Z,33.88
2022-10-16T19:08:44.288Z,30.15
2022-10-16T19:11:13.783Z,27.55
2022-10-16T19:13:41.742Z,26.08
2022-10-16T19:16:21.263Z,53.35
2022-10-16T19:18:49.943Z,44.22
2022-10-16T19:21:19.612Z,55.90
2022-10-16T19:23:47.417Z,49.70
2022-10-16T19:26:17.434Z,54.33
2022-10-16T19:28:45.461Z,71.10
2022-10-16T19:31:14.942Z,35.22
2022-10-16T19:33:42.988Z,82.90
2022-10-16T19:36:16.397Z,82.63
2022-10-16T19:38:46.586Z,59.92
2022-10-16T19:41:15.812Z,48.83
2022-10-16T19:43:43.719Z,81.70
2022-10-16T19:46:13.381Z,75.78
2022-10-16T19:48:41.292Z,49.60
2022-10-16T19:51:11.982Z,69.28
2022-10-16T19:53:39.518Z,68.35
2022-10-16T19:56:15.098Z,64.78
2022-10-16T19:58:43.439Z,89.75
2022-10-16T20:01:11.257Z,83.50
2022-10-16T20:03:39.919Z,77.32
2022-10-16T20:06:09.142Z,85.82
2022-10-16T20:08:38.542Z,90.70
2022-10-16T20:11:07.696Z,96.75
2022-10-16T20:13:39.882Z,85.38
2022-10-16T20:16:10.962Z,59.47
2022-10-16T20:18:38.677Z,105.60
2022-10-16T20:21:10.544Z,100.00
2022-10-16T20:23:38.107Z,83.88
2022-10-16T20:26:05.714Z,103.10
2022-10-16T20:28:33.711Z,116.50
2022-10-16T20:31:07.569Z,77.65
2022-10-16T20:33:35.236Z,83.30
2022-10-16T20:36:02.763Z,84.43
2022-10-16T20:38:30.332Z,59.10
2022-10-16T20:41:04.227Z,72.88
2022-10-16T20:43:31.945Z,50.15
2022-10-16T20:46:02.278Z,75.43
2022-10-16T20:48:30.016Z,64.90
2022-10-16T20:50:59.437Z,60.58
2022-10-16T20:53:27.719Z,71.28
2022-10-16T20:55:55.220Z,28.98
2022-10-16T20:58:22.739Z,67.60
2022-10-16T21:00:50.238Z,62.83
2022-10-16T21:03:19.161Z,44.38
2022-10-16T21:05:46.656Z,73.80
2022-10-16T21:08:14.180Z,86.90
2022-10-16T21:10:41.675Z,51.03
2022-10-16T21:13:09.184Z,54.38
2022-10-16T21:15:37.845Z,54.80
2022-10-16T21:18:05.453Z,51.08
2022-10-16T21:20:34.394Z,44.13
2022-10-16T21:23:03.281Z,44.63
2022-10-16T21:25:30.794Z,45.80
2022-10-16T21:27:58.312Z,48.78
2022-10-16T21:30:26.388Z,42.95
2022-10-16T21:32:53.881Z,37.47
2022-10-16T21:35:21.398Z,45.03
2022-10-16T21:37:50.835Z,55.65
2022-10-16T21:40:18.480Z,68.47
2022-10-16T21:42:46.021Z,57.13
2022-10-16T21:45:13.625Z,40.20
2022-10-16T21:47:41.183Z,44.97
2022-10-16T21:50:09.397Z,36.60
2022-10-16T21:52:36.897Z,37.53
2022-10-16T21:55:06.595Z,31.83
2022-10-16T21:57:36.030Z,36.00
2022-10-16T22:00:06.822Z,31.70
2022-10-16T22:02:36.532Z,28.75
2022-10-16T22:05:04.271Z,28.30
2022-10-16T22:07:31.800Z,28.70
2022-10-16T22:09:59.361Z,33.72
2022-10-16T22:12:29.962Z,29.50
2022-10-16T22:14:57.503Z,37.10
2022-10-16T22:17:25.303Z,26.98
2022-10-16T22:19:53.003Z,32.00
2022-10-16T22:22:20.501Z,33.40
2022-10-16T22:24:48.031Z,39.53
2022-10-16T22:27:15.608Z,44.55
2022-10-16T22:29:44.452Z,55.80
2022-10-16T22:32:12.013Z,52.97
2022-10-16T22:34:39.508Z,53.40
2022-10-16T22:37:07.029Z,54.65
2022-10-16T22:39:34.680Z,36.00
2022-10-16T22:42:03.511Z,34.63
2022-10-16T22:44:31.079Z,35.05
2022-10-16T22:47:00.064Z,28.40
2022-10-16T22:49:27.647Z,27.20
2022-10-16T22:51:55.166Z,29.40
2022-10-16T22:54:22.704Z,31.10
2022-10-16T22:56:50.235Z,25.98
2022-10-16T22:59:17.748Z,24.33
2022-10-16T23:01:45.335Z,28.77
2022-10-16T23:04:14.248Z,43.30
2022-10-16T23:06:41.776Z,25.30
2022-10-16T23:09:11.141Z,27.13
2022-10-16T23:11:38.749Z,25.00
2022-10-16T23:14:06.533Z,26.58
2022-10-16T23:16:34.065Z,30.17
2022-10-16T23:19:01.681Z,29.00
2022-10-16T23:21:30.630Z,25.08
2022-10-16T23:23:58.132Z,27.58
2022-10-16T23:26:27.050Z,24.35
2022-10-16T23:28:57.752Z,22.35
2022-10-16T23:31:25.473Z,23.08
2022-10-16T23:33:53.116Z,23.98
2022-10-16T23:36:22.380Z,26.25
2022-10-16T23:38:52.199Z,21.85
2022-10-16T23:41:20.931Z,21.48
2022-10-16T23:43:49.037Z,22.80
2022-10-16T23:46:16.833Z,21.08
2022-10-16T23:48:44.458Z,23.60
2022-10-16T23:51:12.217Z,21.83
2022-10-16T23:53:39.955Z,23.45
2022-10-16T23:56:09.376Z,24.15
2022-10-16T23:58:37.323Z,20.65
